Time;durP1;ratioP1;P1;durP2;ratioP2;P2;SDS_P1;SDS_P2;PMS_P1;PMS_P2;Temp;Humidity;BMP_temperature;BMP_pressure;BME280_temperature;BME280_humidity;BME280_pressure;Samples;Min_cycle;Max_cycle;Signal;HPM_P1;HPM_P2
2021/12/02 00:00:59;;;;;;;10.10;3.57;;;7.40;99.90;;;;;;4969218;28;20191;-90
2021/12/02 00:03:25;;;;;;;32.37;15.33;;;7.50;99.90;;;;;;4974736;28;20180;-92
2021/12/02 00:05:51;;;;;;;11.30;3.90;;;7.50;99.90;;;;;;4975881;28;20237;-88
2021/12/02 00:08:17;;;;;;;14.80;4.43;;;7.50;99.90;;;;;;4958296;28;20277;-91
2021/12/02 00:10:43;;;;;;;14.43;4.90;;;7.50;99.90;;;;;;4976259;28;20245;-92
2021/12/02 00:13:10;;;;;;;17.53;5.20;;;7.40;99.90;;;;;;4959488;28;20185;-93
2021/12/02 00:15:41;;;;;;;12.63;4.10;;;7.40;99.90;;;;;;4960063;28;20202;-91
2021/12/02 00:23:27;;;;;;;12.03;4.00;;;7.40;99.90;;;;;;4983080;28;20198;-91
2021/12/02 00:25:53;;;;;;;17.80;4.70;;;7.40;99.90;;;;;;4981995;28;20182;-91
2021/12/02 00:28:19;;;;;;;13.80;4.07;;;7.30;99.90;;;;;;4979457;28;20186;-91
2021/12/02 00:30:45;;;;;;;14.73;3.90;;;7.20;99.90;;;;;;4976271;28;20178;-90
2021/12/02 00:33:12;;;;;;;12.13;3.77;;;7.20;99.90;;;;;;4958536;28;20691;-90
2021/12/02 00:35:39;;;;;;;16.60;3.10;;;7.30;99.90;;;;;;4975169;28;20237;-91
2021/12/02 00:38:05;;;;;;;12.90;3.00;;;7.30;99.90;;;;;;4955081;28;20282;-93
2021/12/02 00:40:34;;;;;;;12.80;3.70;;;7.30;99.90;;;;;;4974604;28;20226;-89
2021/12/02 00:43:01;;;;;;;12.67;3.43;;;7.20;99.90;;;;;;4975102;28;20183;-86
2021/12/02 00:45:26;;;;;;;10.47;2.83;;;7.20;99.90;;;;;;4975179;28;20269;-91
2021/12/02 00:47:53;;;;;;;13.37;2.90;;;7.10;99.90;;;;;;4957786;28;20644;-90
2021/12/02 00:50:19;;;;;;;8.93;2.23;;;7.10;99.90;;;;;;4975265;28;20194;-93
2021/12/02 00:52:48;;;;;;;11.07;2.60;;;7.00;99.90;;;;;;4975212;28;20262;-93
2021/12/02 00:55:15;;;;;;;9.80;2.77;;;7.00;99.90;;;;;;4958065;28;20178;-93
2021/12/02 00:57:42;;;;;;;9.67;3.03;;;7.10;99.90;;;;;;4975455;28;20186;-91
2021/12/02 01:00:08;;;;;;;15.20;3.30;;;7.00;99.90;;;;;;4988888;28;20650;-92
2021/12/02 01:02:37;;;;;;;17.43;3.03;;;7.00;99.90;;;;;;4974578;28;20186;-92
2021/12/02 01:05:03;;;;;;;17.70;3.53;;;6.90;99.90;;;;;;4976239;28;20692;-90
2021/12/02 01:07:29;;;;;;;14.63;3.47;;;7.00;99.90;;;;;;4976720;28;20201;-90
2021/12/02 01:09:55;;;;;;;19.60;3.83;;;7.00;99.90;;;;;;4971448;28;20526;-93
2021/12/02 01:12:21;;;;;;;14.43;3.57;;;7.10;99.90;;;;;;4975238;28;20179;-89
2021/12/02 01:14:46;;;;;;;18.87;3.90;;;7.20;99.90;;;;;;4958113;28;20190;-88
2021/12/02 01:17:12;;;;;;;20.50;4.00;;;7.10;99.90;;;;;;4957783;28;20182;-92
2021/12/02 01:19:38;;;;;;;18.40;3.97;;;7.20;99.90;;;;;;4969592;28;20190;-92
2021/12/02 01:22:04;;;;;;;14.53;3.03;;;7.00;99.90;;;;;;4959228;28;20249;-92
2021/12/02 01:24:31;;;;;;;14.10;3.20;;;6.90;99.90;;;;;;4974892;28;20199;-91
2021/12/02 01:26:59;;;;;;;17.93;3.17;;;6.80;99.90;;;;;;4974700;28;20194;-94
2021/12/02 01:29:25;;;;;;;13.83;3.10;;;6.90;99.90;;;;;;4974701;28;20178;-90
2021/12/02 01:31:54;;;;;;;22.33;5.47;;;6.90;99.90;;;;;;4956979;28;20646;-93
2021/12/02 01:34:24;;;;;;;21.23;3.97;;;6.90;99.90;;;;;;4974918;28;20201;-92
2021/12/02 01:36:51;;;;;;;16.00;4.13;;;6.90;99.90;;;;;;4974794;28;20189;-93
2021/12/02 01:39:17;;;;;;;70.73;32.87;;;6.80;99.90;;;;;;4957585;28;20206;-92
2021/12/02 01:41:53;;;;;;;19.00;4.67;;;6.90;99.90;;;;;;4974842;28;20178;-93
2021/12/02 01:44:21;;;;;;;18.03;3.63;;;6.90;99.90;;;;;;4974561;28;20220;-89
2021/12/02 01:46:49;;;;;;;21.80;3.47;;;6.90;99.90;;;;;;4974473;28;20665;-89
2021/12/02 01:49:17;;;;;;;18.93;3.73;;;6.90;99.90;;;;;;4957791;28;20534;-82
2021/12/02 01:51:45;;;;;;;17.73;3.80;;;6.90;99.90;;;;;;4974869;28;20186;-93
2021/12/02 01:54:20;;;;;;;52.03;27.27;;;7.00;99.90;;;;;;4957128;28;20179;-93
2021/12/02 01:57:07;;;;;;;14.17;3.03;;;7.00;99.90;;;;;;4974660;28;20175;-90
2021/12/02 01:59:35;;;;;;;17.60;4.60;;;7.00;99.90;;;;;;4974562;28;20190;-92
2021/12/02 02:02:09;;;;;;;18.73;5.50;;;7.00;99.90;;;;;;4956995;28;20182;-91
2021/12/02 02:04:35;;;;;;;14.50;4.57;;;6.90;99.90;;;;;;4974260;28;20210;-91
2021/12/02 02:07:06;;;;;;;15.43;4.53;;;6.80;99.90;;;;;;4957338;28;20179;-92
2021/12/02 02:09:34;;;;;;;19.80;4.43;;;6.70;99.90;;;;;;4957246;28;20186;-92
2021/12/02 02:12:11;;;;;;;17.13;4.70;;;6.60;99.90;;;;;;4962129;28;20528;-92
2021/12/02 02:14:37;;;;;;;14.60;3.50;;;6.70;99.90;;;;;;4964387;28;20194;-93
2021/12/02 02:17:13;;;;;;;8.67;2.33;;;6.80;99.90;;;;;;4956737;28;20523;-92
2021/12/02 02:19:39;;;;;;;6.07;1.90;;;6.70;99.90;;;;;;4957224;28;20730;-86
2021/12/02 02:22:05;;;;;;;6.33;1.47;;;6.50;99.90;;;;;;4973909;28;20249;-92
2021/12/02 02:24:31;;;;;;;14.67;2.03;;;6.30;99.90;;;;;;4956840;28;20293;-93
2021/12/02 02:26:57;;;;;;;4.83;1.70;;;6.30;99.90;;;;;;4956639;28;20214;-93
2021/12/02 02:29:23;;;;;;;5.57;1.30;;;6.30;99.90;;;;;;4974062;28;20222;-92
2021/12/02 02:31:49;;;;;;;9.77;1.80;;;6.30;99.90;;;;;;4958125;28;20639;-94
2021/12/02 02:34:15;;;;;;;10.43;2.00;;;6.30;99.90;;;;;;4977905;28;20190;-91
2021/12/02 02:36:52;;;;;;;14.37;2.03;;;6.40;99.90;;;;;;4960599;28;20179;-91
2021/12/02 02:39:18;;;;;;;15.70;3.10;;;6.40;99.90;;;;;;4977522;28;20210;-93
2021/12/02 02:41:46;;;;;;;12.33;2.57;;;6.40;99.90;;;;;;4977764;28;20180;-91
2021/12/02 02:44:12;;;;;;;15.07;2.30;;;6.40;99.90;;;;;;4977064;28;20194;-93
2021/12/02 02:46:42;;;;;;;16.30;2.87;;;6.40;99.90;;;;;;4977585;28;20197;-91
2021/12/02 02:49:12;;;;;;;12.50;2.00;;;6.30;99.90;;;;;;4977584;28;20183;-93
2021/12/02 02:51:39;;;;;;;8.70;1.90;;;6.40;99.90;;;;;;4960137;28;20194;-93
2021/12/02 02:54:08;;;;;;;18.63;2.77;;;6.30;99.90;;;;;;4960391;28;20183;-93
2021/12/02 02:56:39;;;;;;;6.47;2.03;;;6.20;99.90;;;;;;4960078;28;20650;-92
2021/12/02 03:02:20;;;;;;;14.87;3.40;;;5.80;99.90;;;;;;4977537;28;20196;-93
2021/12/02 03:04:46;;;;;;;10.60;1.93;;;5.60;99.90;;;;;;4976515;28;20194;-92
2021/12/02 03:12:50;;;;;;;9.00;1.33;;;5.60;99.90;;;;;;4977465;28;20639;-92
2021/12/02 03:17:33;;;;;;;12.60;2.67;;;5.80;99.90;;;;;;4976845;28;20273;-93
2021/12/02 03:19:59;;;;;;;10.83;2.10;;;5.80;99.90;;;;;;4959341;28;20269;-93
2021/12/02 03:22:26;;;;;;;15.20;3.30;;;5.90;99.90;;;;;;4976827;28;20207;-93
2021/12/02 03:24:51;;;;;;;6.40;1.60;;;6.00;99.90;;;;;;4976825;28;20362;-92
2021/12/02 03:27:17;;;;;;;6.97;2.00;;;6.00;99.90;;;;;;4976416;28;20226;-91
2021/12/02 03:29:43;;;;;;;23.93;7.23;;;6.00;99.90;;;;;;4959476;28;20194;-92
2021/12/02 03:32:10;;;;;;;10.60;2.30;;;6.10;99.90;;;;;;4959985;28;20182;-92
2021/12/02 03:34:37;;;;;;;13.77;3.23;;;6.10;99.90;;;;;;4959848;28;20183;-91
2021/12/02 03:37:03;;;;;;;15.37;3.53;;;6.10;99.90;;;;;;4960333;28;20206;-92
2021/12/02 03:39:28;;;;;;;11.53;2.80;;;6.10;99.90;;;;;;4980433;28;20245;-92
2021/12/02 03:41:55;;;;;;;12.23;2.63;;;6.00;99.90;;;;;;4977037;28;20186;-90
2021/12/02 03:44:21;;;;;;;15.13;2.60;;;6.10;99.90;;;;;;4974849;28;20650;-92
2021/12/02 03:46:47;;;;;;;9.90;2.03;;;6.20;99.90;;;;;;4976428;28;20229;-93
2021/12/02 03:49:13;;;;;;;5.47;1.50;;;6.20;99.90;;;;;;4962063;28;20218;-89
2021/12/02 03:51:39;;;;;;;7.47;1.80;;;6.20;99.90;;;;;;4976508;28;20195;-93
2021/12/02 03:54:05;;;;;;;10.13;2.00;;;6.20;99.90;;;;;;4958957;28;20181;-92
2021/12/02 03:56:31;;;;;;;8.30;1.90;;;6.20;99.90;;;;;;4976082;28;20194;-91
2021/12/02 03:58:57;;;;;;;11.70;1.77;;;6.00;99.90;;;;;;4976188;28;20182;-91
2021/12/02 04:01:22;;;;;;;6.97;1.40;;;5.90;99.90;;;;;;4958978;28;20187;-93
2021/12/02 04:03:49;;;;;;;8.23;1.90;;;5.70;99.90;;;;;;4976238;28;20178;-90
2021/12/02 04:06:15;;;;;;;12.43;5.20;;;5.60;99.90;;;;;;4959020;28;20186;-92
2021/12/02 04:11:36;;;;;;;9.03;1.80;;;5.50;99.90;;;;;;4976147;28;20190;-94
2021/12/02 04:14:26;;;;;;;6.03;2.60;;;5.50;99.90;;;;;;4976157;28;20186;-93
2021/12/02 04:16:53;;;;;;;5.77;1.47;;;5.70;99.90;;;;;;4977016;28;20182;-94
2021/12/02 04:19:20;;;;;;;5.27;1.47;;;5.60;99.90;;;;;;4976955;28;20186;-93
2021/12/02 04:21:46;;;;;;;6.60;2.70;;;5.60;99.90;;;;;;4981301;28;20226;-94
2021/12/02 04:24:11;;;;;;;10.03;4.90;;;5.60;99.90;;;;;;4981708;28;20702;-93
2021/12/02 04:26:39;;;;;;;8.50;2.70;;;5.60;99.90;;;;;;4965164;28;20197;-94
2021/12/02 04:29:05;;;;;;;11.87;3.60;;;5.50;99.90;;;;;;4989868;28;20190;-92
2021/12/02 04:31:30;;;;;;;16.07;4.50;;;5.40;99.90;;;;;;4980304;28;20186;-93
2021/12/02 04:33:56;;;;;;;15.77;5.33;;;5.40;99.90;;;;;;4966269;28;20183;-91
2021/12/02 04:36:21;;;;;;;27.17;6.50;;;5.40;99.90;;;;;;4961291;28;20250;-93
2021/12/02 04:38:47;;;;;;;18.57;4.70;;;5.50;99.90;;;;;;4976880;28;20640;-94
2021/12/02 04:41:14;;;;;;;21.07;5.57;;;5.50;99.90;;;;;;4976603;28;20182;-90
2021/12/02 04:43:39;;;;;;;14.17;3.90;;;5.30;99.90;;;;;;4976792;28;20183;-94
2021/12/02 04:46:05;;;;;;;9.10;3.00;;;5.30;99.90;;;;;;4977061;28;20190;-94
2021/12/02 04:48:31;;;;;;;13.60;3.00;;;5.10;99.90;;;;;;4959263;28;20625;-91
2021/12/02 04:50:56;;;;;;;8.53;2.43;;;4.90;99.90;;;;;;4959649;28;20248;-93
2021/12/02 04:53:22;;;;;;;6.77;1.60;;;4.80;99.90;;;;;;4975858;28;20183;-91
2021/12/02 04:55:47;;;;;;;11.00;2.33;;;4.60;99.90;;;;;;4957200;28;20277;-93
2021/12/02 04:58:13;;;;;;;9.77;1.90;;;4.80;99.90;;;;;;4975372;28;20189;-91
2021/12/02 05:00:39;;;;;;;11.00;1.73;;;4.80;99.90;;;;;;4974881;28;20201;-93
2021/12/02 05:03:05;;;;;;;8.37;2.10;;;4.80;99.90;;;;;;4975435;28;20185;-93
2021/12/02 05:05:33;;;;;;;7.73;1.77;;;4.80;99.90;;;;;;4975126;28;20651;-93
2021/12/02 05:08:00;;;;;;;7.20;1.90;;;4.90;99.90;;;;;;4958117;28;20181;-93
2021/12/02 05:10:26;;;;;;;8.73;2.23;;;4.90;99.90;;;;;;4957454;28;20183;-93
2021/12/02 05:12:51;;;;;;;9.00;2.23;;;4.90;99.90;;;;;;4957662;28;20183;-91
2021/12/02 05:15:17;;;;;;;10.03;2.37;;;4.80;99.90;;;;;;4974923;28;20226;-92
2021/12/02 05:17:42;;;;;;;6.60;2.13;;;4.70;99.90;;;;;;4974798;28;20237;-93
2021/12/02 05:20:09;;;;;;;8.67;1.73;;;4.80;99.90;;;;;;4974612;28;20217;-91
2021/12/02 05:22:35;;;;;;;9.27;2.30;;;4.80;99.90;;;;;;4957489;28;20210;-91
2021/12/02 05:25:01;;;;;;;9.17;1.80;;;4.80;99.90;;;;;;4974420;28;20662;-92
2021/12/02 05:27:26;;;;;;;9.87;2.30;;;4.70;99.90;;;;;;4975034;28;20187;-92
2021/12/02 05:29:52;;;;;;;13.03;1.93;;;4.70;99.90;;;;;;4974662;28;20250;-91
2021/12/02 05:32:18;;;;;;;4.60;0.93;;;4.50;99.90;;;;;;4974907;28;20244;-92
2021/12/02 05:34:49;;;;;;;3.53;0.83;;;4.50;99.90;;;;;;4957404;28;20182;-92
2021/12/02 05:37:15;;;;;;;5.07;0.93;;;4.30;99.90;;;;;;4957448;28;20187;-93
2021/12/02 05:39:41;;;;;;;4.67;0.93;;;4.30;99.90;;;;;;4956731;28;20178;-92
2021/12/02 05:42:08;;;;;;;3.53;0.77;;;4.20;99.90;;;;;;4974550;28;20651;-93
2021/12/02 05:44:33;;;;;;;6.20;1.43;;;4.10;99.90;;;;;;4957360;28;20208;-92
2021/12/02 05:46:59;;;;;;;6.67;1.10;;;4.20;99.90;;;;;;4974542;28;20190;-93
2021/12/02 05:49:25;;;;;;;4.30;0.70;;;4.30;99.90;;;;;;4957416;28;20302;-92
2021/12/02 05:51:50;;;;;;;6.87;0.90;;;4.40;99.90;;;;;;4957456;28;20181;-92
2021/12/02 05:54:16;;;;;;;9.83;1.17;;;4.40;99.90;;;;;;4957487;28;20739;-94
2021/12/02 05:56:42;;;;;;;6.93;1.63;;;4.40;99.90;;;;;;4957255;28;20183;-93
2021/12/02 05:59:08;;;;;;;7.83;0.90;;;4.50;99.90;;;;;;4957295;28;20270;-91
2021/12/02 06:01:34;;;;;;;5.90;1.00;;;4.50;99.90;;;;;;4957322;28;20190;-93
2021/12/02 06:03:59;;;;;;;9.40;1.07;;;4.50;99.90;;;;;;4957161;28;20573;-92
2021/12/02 06:06:27;;;;;;;7.37;1.07;;;4.50;99.90;;;;;;4958200;28;20516;-93
2021/12/02 06:08:52;;;;;;;8.13;1.37;;;4.70;99.90;;;;;;4978046;28;20213;-93
2021/12/02 06:11:18;;;;;;;4.90;1.50;;;4.80;99.90;;;;;;4980762;28;20183;-90
2021/12/02 06:13:46;;;;;;;2.93;1.03;;;4.80;99.90;;;;;;4964873;28;20187;-92
2021/12/02 06:16:12;;;;;;;8.47;1.20;;;4.80;99.90;;;;;;4961074;28;20182;-90
2021/12/02 06:18:38;;;;;;;6.40;1.20;;;4.80;99.90;;;;;;4960851;28;20175;-92
2021/12/02 06:21:04;;;;;;;5.67;1.57;;;4.80;99.90;;;;;;4960736;28;20222;-92
2021/12/02 06:23:30;;;;;;;7.07;1.60;;;4.70;99.90;;;;;;4968069;28;20181;-90
2021/12/02 06:25:56;;;;;;;7.53;1.60;;;4.60;99.90;;;;;;4966539;28;20277;-88
2021/12/02 06:28:21;;;;;;;9.03;1.97;;;4.60;99.90;;;;;;4960264;28;20178;-92
2021/12/02 06:30:47;;;;;;;14.00;3.23;;;4.60;99.90;;;;;;4960415;28;20186;-91
2021/12/02 06:33:13;;;;;;;8.70;3.30;;;4.70;99.90;;;;;;4960303;28;20717;-92
2021/12/02 06:35:40;;;;;;;22.10;4.97;;;4.80;99.90;;;;;;4960362;28;20182;-91
2021/12/02 06:38:06;;;;;;;21.83;6.57;;;4.80;99.90;;;;;;4960131;28;20178;-92
2021/12/02 06:40:34;;;;;;;25.37;7.20;;;4.80;99.90;;;;;;4960487;28;20655;-92
2021/12/02 06:43:01;;;;;;;18.10;5.93;;;4.90;99.90;;;;;;4977476;28;20175;-91
2021/12/02 06:45:26;;;;;;;26.97;6.70;;;4.80;99.90;;;;;;4960456;28;20210;-91
2021/12/02 06:47:57;;;;;;;22.07;6.20;;;4.80;99.90;;;;;;4960274;28;20186;-92
2021/12/02 06:50:22;;;;;;;27.90;6.80;;;4.80;99.90;;;;;;4977138;28;20194;-92
2021/12/02 06:52:50;;;;;;;23.93;6.20;;;4.90;99.90;;;;;;4959995;28;20181;-92
2021/12/02 06:55:17;;;;;;;24.87;6.33;;;4.90;99.90;;;;;;4960348;28;20195;-93
2021/12/02 06:57:43;;;;;;;22.10;5.57;;;5.00;99.90;;;;;;4959918;28;20179;-88
2021/12/02 07:00:12;;;;;;;23.90;5.20;;;5.00;99.90;;;;;;4977395;28;20190;-91
2021/12/02 07:02:38;;;;;;;22.37;4.90;;;5.00;99.90;;;;;;4959741;28;20186;-93
2021/12/02 07:05:05;;;;;;;27.07;4.63;;;4.90;99.90;;;;;;4959626;28;20683;-92
2021/12/02 07:07:35;;;;;;;14.77;3.37;;;4.80;99.90;;;;;;4959415;28;20245;-92
2021/12/02 07:10:03;;;;;;;20.13;4.07;;;4.70;99.90;;;;;;4960277;28;20203;-93
2021/12/02 07:12:31;;;;;;;22.87;3.40;;;4.70;99.90;;;;;;4976624;28;20174;-93
2021/12/02 07:14:58;;;;;;;13.03;3.03;;;4.80;99.90;;;;;;4960318;28;20193;-94
2021/12/02 07:17:24;;;;;;;13.70;3.60;;;4.70;99.90;;;;;;4960202;28;20621;-94
2021/12/02 07:19:50;;;;;;;12.73;3.13;;;4.70;99.90;;;;;;4959889;28;20225;-94
2021/12/02 07:22:16;;;;;;;8.83;3.00;;;4.80;99.90;;;;;;4960382;28;20203;-94
2021/12/02 07:24:41;;;;;;;14.90;3.37;;;4.90;99.90;;;;;;4959610;28;20241;-93
2021/12/02 07:27:07;;;;;;;11.93;2.60;;;4.60;99.90;;;;;;4960282;28;20185;-90
2021/12/02 07:29:33;;;;;;;12.67;3.17;;;4.20;99.90;;;;;;4960157;28;20738;-93
2021/12/02 07:32:02;;;;;;;5.13;2.00;;;3.80;99.90;;;;;;4960187;28;20721;-94
2021/12/02 07:34:33;;;;;;;2.20;1.00;;;3.60;99.90;;;;;;4959186;28;20709;-83
2021/12/02 07:36:59;;;;;;;3.80;1.20;;;3.30;99.90;;;;;;4977147;28;20233;-92
2021/12/02 07:39:25;;;;;;;5.23;1.43;;;3.10;99.90;;;;;;4960227;28;20213;-93
2021/12/02 07:41:51;;;;;;;4.43;0.90;;;3.10;99.90;;;;;;4959792;28;20680;-93
2021/12/02 07:44:18;;;;;;;2.47;0.63;;;3.20;99.90;;;;;;4959882;28;20198;-93
2021/12/02 07:46:44;;;;;;;3.53;0.60;;;3.30;99.90;;;;;;4959961;28;20182;-92
2021/12/02 07:49:14;;;;;;;2.30;0.60;;;3.30;99.90;;;;;;4959358;28;20187;-91
2021/12/02 07:51:43;;;;;;;1.80;0.40;;;3.30;99.90;;;;;;4965422;28;20668;-94
2021/12/02 07:54:09;;;;;;;0.60;0.47;;;3.30;99.90;;;;;;4984593;28;20212;-93
2021/12/02 07:56:35;;;;;;;0.77;0.23;;;3.20;99.90;;;;;;4959833;28;20185;-91
2021/12/02 07:59:01;;;;;;;2.00;0.70;;;3.20;99.90;;;;;;4959274;28;20646;-90
2021/12/02 08:01:27;;;;;;;1.03;0.80;;;3.30;99.90;;;;;;4959785;28;20174;-91
2021/12/02 08:03:52;;;;;;;2.87;0.70;;;3.40;99.90;;;;;;4958907;28;20675;-92
2021/12/02 08:06:18;;;;;;;1.90;0.90;;;3.50;99.90;;;;;;4959731;28;20194;-92
2021/12/02 08:08:45;;;;;;;2.50;1.03;;;3.70;99.90;;;;;;4959220;28;20189;-88
2021/12/02 08:11:12;;;;;;;3.03;1.30;;;3.70;99.90;;;;;;4976854;28;20650;-92
2021/12/02 08:13:37;;;;;;;2.27;1.27;;;3.60;99.90;;;;;;4960273;28;20182;-91
2021/12/02 08:16:05;;;;;;;4.43;1.30;;;3.50;99.90;;;;;;4977954;28;20202;-92
2021/12/02 08:18:31;;;;;;;3.87;1.60;;;3.50;99.90;;;;;;4962285;28;20181;-87
2021/12/02 08:20:58;;;;;;;2.33;1.50;;;3.60;99.90;;;;;;4985923;28;20226;-90
2021/12/02 08:23:25;;;;;;;4.93;3.13;;;3.70;99.90;;;;;;4965980;28;20218;-90
2021/12/02 08:25:50;;;;;;;2.90;1.43;;;3.80;99.90;;;;;;4958476;28;20245;-91
2021/12/02 08:28:16;;;;;;;3.50;1.83;;;3.80;99.90;;;;;;4958292;28;20555;-90
2021/12/02 08:30:42;;;;;;;3.17;1.93;;;3.80;99.90;;;;;;4955855;28;20183;-89
2021/12/02 08:33:09;;;;;;;15.63;6.43;;;3.70;99.90;;;;;;4950741;28;20229;-85
2021/12/02 08:35:35;;;;;;;4.37;2.27;;;3.70;99.90;;;;;;4957357;28;20182;-84
2021/12/02 08:38:06;;;;;;;6.33;2.53;;;3.60;99.90;;;;;;4957734;28;20252;-84
2021/12/02 08:40:34;;;;;;;5.67;3.57;;;3.40;99.90;;;;;;4974486;28;20673;-84
2021/12/02 08:43:01;;;;;;;25.33;16.93;;;3.40;99.90;;;;;;4957644;28;20331;-85
2021/12/02 08:45:28;;;;;;;12.10;4.87;;;3.30;99.90;;;;;;4953942;28;20270;-84
2021/12/02 08:47:55;;;;;;;14.87;5.40;;;3.20;99.90;;;;;;4967357;28;20221;-84
2021/12/02 08:50:22;;;;;;;17.87;5.40;;;3.20;99.90;;;;;;4957440;28;20199;-85
2021/12/02 08:52:50;;;;;;;16.67;5.73;;;3.30;99.90;;;;;;4957692;28;20184;-85
2021/12/02 08:55:17;;;;;;;16.17;5.20;;;3.40;99.90;;;;;;4957582;28;20209;-85
2021/12/02 08:57:44;;;;;;;20.83;5.57;;;3.40;99.90;;;;;;4958034;28;20641;-85
2021/12/02 09:00:13;;;;;;;17.67;7.03;;;3.40;99.90;;;;;;4957741;28;20191;-85
2021/12/02 09:02:39;;;;;;;20.70;5.93;;;3.40;99.90;;;;;;4956617;28;20197;-85
2021/12/02 09:05:06;;;;;;;20.20;6.50;;;3.40;99.90;;;;;;4957468;28;20250;-85
2021/12/02 09:07:32;;;;;;;19.63;5.60;;;3.40;99.90;;;;;;4960035;28;20178;-84
2021/12/02 09:09:58;;;;;;;23.07;6.30;;;3.40;99.90;;;;;;4968706;28;20187;-86
2021/12/02 09:12:24;;;;;;;21.60;9.93;;;3.50;99.90;;;;;;4958577;28;20189;-86
2021/12/02 09:14:50;;;;;;;22.10;8.00;;;3.50;99.90;;;;;;4964417;28;20221;-86
2021/12/02 09:17:16;;;;;;;22.57;7.87;;;3.60;99.90;;;;;;4952838;28;20256;-86
2021/12/02 09:19:42;;;;;;;24.73;11.07;;;3.60;99.90;;;;;;4973667;28;20233;-86
2021/12/02 09:22:09;;;;;;;19.13;7.67;;;3.60;99.90;;;;;;4952539;28;20252;-86
2021/12/02 09:24:36;;;;;;;31.93;10.97;;;3.70;99.90;;;;;;4966271;28;20253;-85
2021/12/02 09:27:02;;;;;;;31.53;12.93;;;3.80;99.90;;;;;;4953126;28;20177;-85
2021/12/02 09:29:28;;;;;;;35.37;9.87;;;3.90;99.90;;;;;;4952614;28;20215;-86
2021/12/02 09:31:54;;;;;;;28.10;7.33;;;4.00;99.90;;;;;;4957188;28;20647;-86
2021/12/02 09:34:21;;;;;;;27.27;7.80;;;4.10;99.90;;;;;;4957083;28;20176;-86
2021/12/02 09:36:47;;;;;;;30.23;9.17;;;4.10;99.90;;;;;;4956944;28;20182;-86
2021/12/02 09:39:14;;;;;;;26.17;12.07;;;4.20;99.90;;;;;;4957262;28;20284;-86
2021/12/02 09:41:43;;;;;;;33.27;16.57;;;4.30;99.90;;;;;;4958471;28;20228;-87
2021/12/02 09:44:09;;;;;;;34.87;8.47;;;4.20;99.90;;;;;;4957060;28;20754;-87
2021/12/02 09:46:35;;;;;;;32.17;12.50;;;4.20;99.90;;;;;;4960572;28;20221;-87
2021/12/02 09:49:03;;;;;;;26.33;9.37;;;4.30;99.90;;;;;;4960876;28;20194;-86
2021/12/02 09:51:36;;;;;;;21.83;8.27;;;4.30;99.90;;;;;;4960845;28;20201;-86
2021/12/02 09:54:11;;;;;;;27.40;6.90;;;4.20;99.90;;;;;;4961188;28;20175;-86
2021/12/02 09:56:38;;;;;;;23.97;7.10;;;4.20;99.90;;;;;;4970951;28;20587;-86
2021/12/02 09:59:22;;;;;;;31.70;7.00;;;4.20;99.90;;;;;;4966276;28;20351;-86
2021/12/02 10:01:51;;;;;;;15.97;5.60;;;4.30;99.90;;;;;;4965021;28;20199;-86
2021/12/02 10:04:17;;;;;;;23.47;5.77;;;4.30;99.90;;;;;;4960508;28;20211;-85
2021/12/02 10:06:43;;;;;;;22.10;4.83;;;4.30;99.90;;;;;;4952574;28;20191;-86
2021/12/02 10:09:13;;;;;;;18.77;5.50;;;4.30;99.90;;;;;;4956510;28;20197;-86
2021/12/02 10:11:58;;;;;;;17.67;5.37;;;4.30;99.90;;;;;;4960483;28;20185;-86
2021/12/02 10:14:38;;;;;;;15.83;4.37;;;4.30;99.90;;;;;;4956232;28;20282;-86
2021/12/02 10:17:20;;;;;;;19.70;3.97;;;4.30;99.90;;;;;;4978287;28;20175;-86
2021/12/02 10:20:01;;;;;;;12.97;3.30;;;4.40;99.90;;;;;;4960465;28;20196;-86
2021/12/02 10:22:27;;;;;;;11.90;3.23;;;4.40;99.90;;;;;;4960075;28;20654;-86
2021/12/02 10:24:52;;;;;;;15.53;3.20;;;4.40;99.90;;;;;;4959763;28;20218;-87
2021/12/02 10:27:18;;;;;;;11.47;2.93;;;4.40;99.90;;;;;;4953450;28;20600;-86
2021/12/02 10:29:47;;;;;;;7.43;2.50;;;4.40;99.90;;;;;;4966790;28;20197;-89
2021/12/02 10:32:25;;;;;;;6.10;2.20;;;4.50;99.90;;;;;;4960096;28;20171;-85
2021/12/02 10:34:53;;;;;;;5.63;1.60;;;4.50;99.90;;;;;;4964672;28;20186;-85
2021/12/02 10:37:22;;;;;;;9.77;2.07;;;4.40;99.90;;;;;;4960181;28;20210;-87
2021/12/02 10:40:07;;;;;;;8.73;2.00;;;4.50;99.90;;;;;;4962054;28;20191;-85
2021/12/02 10:42:34;;;;;;;5.77;2.47;;;4.40;99.90;;;;;;4955193;28;20186;-85
2021/12/02 10:45:02;;;;;;;7.90;2.13;;;4.30;99.90;;;;;;4962946;28;20213;-85
2021/12/02 10:47:30;;;;;;;9.57;2.40;;;4.30;99.90;;;;;;4961285;28;20244;-85
2021/12/02 10:50:08;;;;;;;10.70;2.77;;;4.30;99.90;;;;;;4960063;28;20194;-85
2021/12/02 10:52:35;;;;;;;6.33;2.17;;;4.20;99.90;;;;;;4959432;28;20265;-86
2021/12/02 10:55:05;;;;;;;8.53;2.40;;;4.30;99.90;;;;;;4959817;28;20183;-85
2021/12/02 10:57:33;;;;;;;8.33;3.00;;;4.40;99.90;;;;;;4973141;28;20181;-85
2021/12/02 11:00:05;;;;;;;38.43;22.20;;;4.50;99.90;;;;;;4959966;28;20233;-84
2021/12/02 11:02:35;;;;;;;12.07;7.07;;;4.40;99.90;;;;;;4959783;28;20199;-84
2021/12/02 11:05:19;;;;;;;11.00;5.43;;;4.40;99.90;;;;;;4959775;28;20224;-84
2021/12/02 11:08:12;;;;;;;20.43;8.13;;;4.40;99.90;;;;;;4959531;28;20245;-84
2021/12/02 11:10:50;;;;;;;12.23;5.90;;;4.30;99.90;;;;;;4959579;28;20267;-85
2021/12/02 11:13:21;;;;;;;11.43;5.50;;;4.40;99.90;;;;;;4947481;28;20186;-84
2021/12/02 11:15:47;;;;;;;9.87;4.70;;;4.50;99.90;;;;;;4959499;28;20265;-84
2021/12/02 11:18:16;;;;;;;9.67;5.50;;;4.50;99.90;;;;;;4959557;28;20195;-85
2021/12/02 11:20:51;;;;;;;9.37;4.43;;;4.50;99.90;;;;;;4959391;28;20690;-84
2021/12/02 11:23:28;;;;;;;8.80;4.27;;;4.40;99.90;;;;;;4965368;28;20193;-85
2021/12/02 11:26:01;;;;;;;11.53;6.33;;;4.40;99.90;;;;;;4965437;28;20210;-84
2021/12/02 11:28:30;;;;;;;25.53;15.57;;;4.40;99.90;;;;;;4946582;28;20179;-85
2021/12/02 11:30:58;;;;;;;12.90;6.73;;;4.40;99.90;;;;;;4959238;28;20178;-85
2021/12/02 11:33:35;;;;;;;15.63;8.13;;;4.40;99.90;;;;;;4959040;28;20192;-85
2021/12/02 11:36:03;;;;;;;17.43;6.20;;;4.60;99.90;;;;;;4959553;28;20274;-85
2021/12/02 11:38:32;;;;;;;13.97;6.40;;;4.60;99.90;;;;;;4959231;28;20182;-86
2021/12/02 11:41:03;;;;;;;19.10;7.00;;;4.60;99.90;;;;;;4970496;28;20220;-86
2021/12/02 11:43:38;;;;;;;19.43;9.67;;;4.80;99.90;;;;;;4974342;28;20183;-86
2021/12/02 11:46:07;;;;;;;16.40;6.70;;;4.90;99.90;;;;;;4959072;28;20260;-86
2021/12/02 11:48:39;;;;;;;18.10;8.10;;;5.00;99.90;;;;;;4972803;28;20182;-86
2021/12/02 11:51:17;;;;;;;10.83;6.20;;;4.90;99.90;;;;;;4959158;28;20196;-88
2021/12/02 11:53:42;;;;;;;14.03;6.40;;;5.00;99.90;;;;;;4972534;28;20175;-88
2021/12/02 11:56:14;;;;;;;12.07;5.70;;;4.90;99.90;;;;;;4965048;28;20185;-85
2021/12/02 11:58:40;;;;;;;11.63;6.33;;;5.00;99.90;;;;;;4965396;28;20301;-86
2021/12/02 12:01:08;;;;;;;13.27;7.63;;;4.90;99.90;;;;;;4958953;28;20182;-88
2021/12/02 12:03:44;;;;;;;12.47;7.37;;;5.00;99.90;;;;;;4969802;28;20174;-88
2021/12/02 12:06:31;;;;;;;13.20;7.23;;;5.00;99.90;;;;;;4958976;28;20245;-87
2021/12/02 12:08:58;;;;;;;11.03;6.43;;;4.90;99.90;;;;;;4958431;28;20299;-86
2021/12/02 12:11:30;;;;;;;15.53;6.93;;;5.00;99.90;;;;;;4964740;28;20225;-87
2021/12/02 12:14:12;;;;;;;9.60;6.07;;;5.00;99.90;;;;;;4965369;28;20272;-87
2021/12/02 12:16:41;;;;;;;9.77;5.33;;;4.90;99.90;;;;;;4959023;28;20182;-86
2021/12/02 12:19:22;;;;;;;11.13;6.13;;;4.80;99.90;;;;;;4958385;28;20647;-87
2021/12/02 12:21:56;;;;;;;10.63;5.50;;;4.80;99.90;;;;;;4946992;28;20214;-86
2021/12/02 12:24:51;;;;;;;8.57;4.57;;;4.70;99.90;;;;;;4958220;28;20201;-87
2021/12/02 12:27:22;;;;;;;8.90;5.23;;;4.80;99.90;;;;;;4958446;28;20242;-86
2021/12/02 12:30:04;;;;;;;11.17;5.90;;;5.00;99.90;;;;;;4975586;28;20293;-87
2021/12/02 12:33:10;;;;;;;10.97;4.70;;;5.20;99.90;;;;;;4966702;28;20281;-86
2021/12/02 12:35:55;;;;;;;6.43;4.00;;;5.40;99.90;;;;;;4957391;28;20185;-87
2021/12/02 12:38:25;;;;;;;7.27;3.67;;;5.40;99.90;;;;;;4960039;28;20186;-87
2021/12/02 12:41:14;;;;;;;5.27;3.10;;;5.50;99.90;;;;;;4958204;28;20193;-87
2021/12/02 12:43:48;;;;;;;3.37;2.53;;;5.60;99.90;;;;;;4958466;28;20187;-86
2021/12/02 12:46:26;;;;;;;6.50;3.87;;;5.50;99.90;;;;;;4957443;28;20229;-86
2021/12/02 12:48:54;;;;;;;8.90;3.17;;;5.40;99.90;;;;;;4958212;28;20206;-85
2021/12/02 12:51:29;;;;;;;7.07;3.17;;;5.40;99.90;;;;;;4957693;28;20289;-86
2021/12/02 12:53:57;;;;;;;4.40;3.33;;;5.40;99.90;;;;;;4963718;28;20184;-86
2021/12/02 12:56:33;;;;;;;6.60;3.20;;;5.50;99.90;;;;;;4964999;28;20191;-86
2021/12/02 12:59:06;;;;;;;6.57;3.93;;;5.50;99.90;;;;;;4971455;28;20182;-86
2021/12/02 13:01:32;;;;;;;5.30;4.00;;;5.50;99.90;;;;;;4957762;28;20175;-86
2021/12/02 13:04:06;;;;;;;9.47;5.30;;;5.50;99.90;;;;;;4958594;28;20182;-87
2021/12/02 13:06:46;;;;;;;8.73;4.63;;;5.50;99.90;;;;;;4969232;28;20185;-86
2021/12/02 13:09:12;;;;;;;8.03;4.83;;;5.60;99.90;;;;;;4959243;28;20179;-86
2021/12/02 13:11:38;;;;;;;8.27;4.77;;;5.60;99.90;;;;;;4969455;28;20606;-86
2021/12/02 13:14:04;;;;;;;6.43;4.40;;;5.80;99.90;;;;;;4957643;28;20186;-84
2021/12/02 13:16:30;;;;;;;7.30;3.80;;;6.00;99.90;;;;;;4957532;28;20198;-86